Kibble, Illinois
Current Conditions -  °F | °C
As of 4:35 PM on Sunday 23 Nov 2014 (Local Time) from KRSV Reporting Station
Light Rain Light Rain  
Wind Chill: 53°   Ceiling: 500
Heat Index: 53°   Visibility: 7mi
Dew Point: 53°   Wind: 8mph
Humidity: 99%   Direction: 120°ESE
Pressure: 29.4"   Gusts: NA
Location:  39.0119°N, 87.8886°W
Report Text: KRSV 232235Z AUTO 12007KT 7SM -RA OVC005 12/11 A2940 RMK AO2 P0006 T01150114
Loading
Personal Weather Stations






























Interactive Weather Map New forecast layout! Learn more

10-Day Weather Forecast

Advertisements
Track Severe Weather on mobile